createdAt,value
2023-01-20T00:01:16.577Z,0.11
2023-01-20T00:03:44.581Z,0.14
2023-01-20T00:06:12.529Z,0.02
2023-01-20T00:11:08.805Z,0.07
2023-01-20T00:13:36.429Z,-0.01
2023-01-20T00:16:05.377Z,0.13
2023-01-20T00:18:33.664Z,0.01
2023-01-20T00:21:09.239Z,-0.01
2023-01-20T00:23:36.408Z,0.09
2023-01-20T00:26:14.383Z,0.13
2023-01-20T00:28:41.153Z,0.00
2023-01-20T00:31:12.283Z,-0.02
2023-01-20T00:36:06.563Z,0.00
2023-01-20T00:38:34.847Z,0.02
2023-01-20T00:41:01.583Z,0.04
2023-01-20T00:43:28.698Z,0.04
2023-01-20T00:45:55.697Z,-0.01
2023-01-20T00:48:22.543Z,-0.03
2023-01-20T00:50:49.560Z,-0.02
2023-01-20T00:53:16.303Z,0.06
2023-01-20T00:55:43.056Z,0.07
2023-01-20T00:58:10.343Z,0.09
2023-01-20T01:00:37.544Z,0.10
2023-01-20T01:03:05.791Z,-0.02
2023-01-20T01:05:33.503Z,0.05
2023-01-20T01:08:00.262Z,0.07
2023-01-20T01:10:26.981Z,-0.03
2023-01-20T01:12:53.823Z,-0.02
2023-01-20T01:15:20.748Z,-0.03
2023-01-20T01:17:47.710Z,-0.03
2023-01-20T01:20:14.451Z,-0.09
2023-01-20T01:22:41.253Z,-0.10
2023-01-20T01:25:08.095Z,-0.09
2023-01-20T01:27:34.861Z,-0.05
2023-01-20T01:30:01.562Z,-0.02
2023-01-20T01:32:30.976Z,0.10
2023-01-20T01:34:57.710Z,-0.02
2023-01-20T01:37:24.528Z,0.13
2023-01-20T01:39:51.267Z,0.20
2023-01-20T01:42:20.666Z,-0.01
2023-01-20T01:45:12.634Z,-0.10
2023-01-20T01:47:42.012Z,-0.16
2023-01-20T01:50:16.417Z,-0.18
2023-01-20T01:52:46.893Z,-0.13
2023-01-20T01:55:19.499Z,-0.13
2023-01-20T01:57:47.631Z,-0.04
2023-01-20T02:00:14.687Z,-0.14
2023-01-20T02:02:47.230Z,-0.08
2023-01-20T02:05:16.431Z,-0.03
2023-01-20T02:07:49.713Z,-0.08
2023-01-20T02:10:17.244Z,-0.09
2023-01-20T02:12:47.579Z,-0.09
2023-01-20T02:15:14.865Z,-0.09
2023-01-20T02:18:02.983Z,-0.02
2023-01-20T02:20:40.758Z,-0.19
2023-01-20T02:23:11.349Z,-0.18
2023-01-20T02:25:41.993Z,-0.21
2023-01-20T02:28:37.476Z,-0.19
2023-01-20T02:31:10.491Z,-0.20
2023-01-20T02:33:41.805Z,-0.21
2023-01-20T02:36:37.845Z,-0.21
2023-01-20T02:39:27.107Z,-0.23
2023-01-20T02:42:08.946Z,-0.25
2023-01-20T02:44:41.755Z,-0.27
2023-01-20T02:47:12.742Z,-0.27
2023-01-20T02:49:41.658Z,-0.21
2023-01-20T02:52:21.749Z,-0.27
2023-01-20T02:54:52.619Z,-0.24
2023-01-20T02:57:26.184Z,-0.26
2023-01-20T02:59:57.610Z,-0.32
2023-01-20T03:02:28.703Z,-0.39
2023-01-20T03:05:10.237Z,-0.26
2023-01-20T03:07:41.804Z,-0.35
2023-01-20T03:10:14.781Z,-0.40
2023-01-20T03:12:50.429Z,-0.31
2023-01-20T03:15:23.965Z,-0.30
2023-01-20T03:17:51.198Z,-0.37
2023-01-20T03:20:18.019Z,-0.44
2023-01-20T03:22:44.863Z,-0.38
2023-01-20T03:25:13.981Z,-0.35
2023-01-20T03:27:41.811Z,-0.38
2023-01-20T03:30:14.312Z,-0.34
2023-01-20T03:32:41.920Z,-0.33
2023-01-20T03:35:09.634Z,-0.41
2023-01-20T03:37:36.542Z,-0.42
2023-01-20T03:40:05.051Z,-0.40
2023-01-20T03:45:10.540Z,-0.36
2023-01-20T03:47:41.757Z,-0.40
2023-01-20T03:50:41.697Z,-0.40
2023-01-20T03:53:28.249Z,-0.38
2023-01-20T03:56:08.138Z,-0.46
2023-01-20T03:58:39.431Z,-0.44
2023-01-20T04:01:18.555Z,-0.43
2023-01-20T04:03:50.959Z,-0.35
2023-01-20T04:06:21.596Z,-0.34
2023-01-20T04:08:59.472Z,-0.26
2023-01-20T04:11:27.329Z,-0.24
2023-01-20T04:13:55.043Z,-0.12
2023-01-20T04:16:23.161Z,-0.21
2023-01-20T04:18:52.209Z,-0.27
2023-01-20T04:21:25.105Z,-0.18
2023-01-20T04:24:14.502Z,-0.26
2023-01-20T04:26:41.409Z,-0.30
2023-01-20T04:29:13.122Z,-0.24
2023-01-20T04:34:07.021Z,-0.25
2023-01-20T04:36:33.878Z,-0.27
2023-01-20T04:39:00.538Z,-0.20
2023-01-20T04:41:27.284Z,-0.28
2023-01-20T04:43:53.926Z,-0.28
2023-01-20T04:46:20.641Z,-0.21
2023-01-20T04:48:47.385Z,-0.20
2023-01-20T04:51:14.451Z,-0.30
2023-01-20T04:53:41.596Z,-0.26
2023-01-20T04:56:13.392Z,-0.33
2023-01-20T04:58:41.868Z,-0.21
2023-01-20T05:01:09.693Z,-0.23
2023-01-20T05:03:36.950Z,-0.22
2023-01-20T05:06:03.857Z,-0.24
2023-01-20T05:08:30.651Z,-0.38
2023-01-20T05:10:57.347Z,-0.37
2023-01-20T05:13:24.072Z,-0.32
2023-01-20T05:15:50.800Z,-0.29
2023-01-20T05:18:17.621Z,-0.41
2023-01-20T05:20:49.111Z,-0.40
2023-01-20T05:23:16.752Z,-0.41
2023-01-20T05:25:49.500Z,-0.39
2023-01-20T05:28:16.363Z,-0.43
2023-01-20T05:30:43.206Z,-0.41
2023-01-20T05:33:10.112Z,-0.39
2023-01-20T05:35:38.528Z,-0.44
2023-01-20T05:38:05.427Z,-0.45
2023-01-20T05:40:32.418Z,-0.47
2023-01-20T05:43:02.272Z,-0.41
2023-01-20T05:45:32.634Z,-0.42
2023-01-20T05:48:00.894Z,-0.42
2023-01-20T05:50:29.837Z,-0.47
2023-01-20T05:52:56.887Z,-0.36
2023-01-20T05:55:23.652Z,-0.43
2023-01-20T05:57:54.112Z,-0.36
2023-01-20T06:00:21.706Z,-0.41
2023-01-20T06:02:48.436Z,-0.43
2023-01-20T06:05:15.443Z,-0.36
2023-01-20T06:07:42.393Z,-0.39
2023-01-20T06:10:09.771Z,-0.42
2023-01-20T06:12:36.669Z,-0.41
2023-01-20T06:15:07.288Z,-0.43
2023-01-20T06:17:34.591Z,-0.44
2023-01-20T06:20:01.564Z,-0.40
2023-01-20T06:22:28.529Z,-0.39
2023-01-20T06:24:55.331Z,-0.36
2023-01-20T06:27:22.623Z,-0.29
2023-01-20T06:29:51.060Z,-0.31
2023-01-20T06:32:18.665Z,-0.39
2023-01-20T06:34:46.158Z,-0.40
2023-01-20T06:37:12.855Z,-0.33
2023-01-20T06:42:07.483Z,-0.49
2023-01-20T06:44:34.383Z,-0.44
2023-01-20T06:47:01.979Z,-0.43
2023-01-20T06:49:28.641Z,-0.44
2023-01-20T06:51:58.175Z,-0.36
2023-01-20T06:54:24.841Z,-0.30
2023-01-20T06:56:51.573Z,-0.30
2023-01-20T06:59:18.304Z,-0.18
2023-01-20T07:01:45.557Z,-0.22
2023-01-20T07:04:13.862Z,-0.23
2023-01-20T07:06:40.854Z,-0.19
2023-01-20T07:09:13.343Z,-0.20
2023-01-20T07:14:07.318Z,-0.23
2023-01-20T07:16:34.956Z,-0.22
2023-01-20T07:19:01.873Z,-0.27
2023-01-20T07:21:29.241Z,-0.23
2023-01-20T07:23:56.248Z,-0.24
2023-01-20T07:26:27.217Z,-0.21
2023-01-20T07:28:54.259Z,-0.14
2023-01-20T07:31:23.597Z,-0.21
2023-01-20T07:33:50.974Z,-0.18
2023-01-20T07:36:18.318Z,-0.24
2023-01-20T07:38:51.937Z,-0.18
2023-01-20T07:41:20.259Z,-0.19
2023-01-20T07:43:49.811Z,-0.30
2023-01-20T07:46:17.335Z,-0.22
2023-01-20T07:48:44.065Z,-0.28
2023-01-20T07:51:13.223Z,-0.22
2023-01-20T07:53:41.813Z,-0.21
2023-01-20T07:56:11.650Z,-0.20
2023-01-20T07:58:38.947Z,-0.08
2023-01-20T08:01:30.211Z,-0.07
2023-01-20T08:03:58.389Z,-0.03
2023-01-20T08:06:26.780Z,0.06
2023-01-20T08:08:54.087Z,-0.02
2023-01-20T08:11:22.121Z,0.18
2023-01-20T08:13:49.437Z,0.25
2023-01-20T08:16:18.106Z,0.23
2023-01-20T08:18:45.324Z,0.14
2023-01-20T08:21:19.143Z,0.15
2023-01-20T08:23:45.881Z,0.12
2023-01-20T08:26:12.744Z,0.20
2023-01-20T08:28:39.506Z,0.16
2023-01-20T08:31:10.591Z,0.21
2023-01-20T08:33:37.776Z,0.08
2023-01-20T08:36:19.864Z,0.26
2023-01-20T08:38:47.135Z,0.29
2023-01-20T08:41:22.917Z,0.22
2023-01-20T08:43:50.489Z,0.32
2023-01-20T08:46:19.094Z,0.47
2023-01-20T08:48:47.656Z,0.52
2023-01-20T08:51:18.004Z,0.34
2023-01-20T08:53:44.757Z,0.52
2023-01-20T08:56:12.967Z,0.67
2023-01-20T08:58:42.119Z,0.61
2023-01-20T09:01:14.337Z,0.55
2023-01-20T09:03:45.032Z,0.40
2023-01-20T09:06:16.637Z,0.50
2023-01-20T09:08:43.814Z,0.36
2023-01-20T09:11:16.626Z,0.32
2023-01-20T09:13:43.634Z,0.23
2023-01-20T09:16:15.537Z,0.19
2023-01-20T09:18:43.331Z,0.12
2023-01-20T09:21:10.801Z,0.14
2023-01-20T09:26:07.850Z,0.40
2023-01-20T09:28:35.106Z,0.49
2023-01-20T09:31:07.549Z,0.29
2023-01-20T09:33:36.360Z,-0.03
2023-01-20T09:36:04.516Z,-0.01
2023-01-20T09:41:36.148Z,-0.14
2023-01-20T09:44:33.375Z,-0.16
2023-01-20T09:47:31.019Z,-0.03
2023-01-20T09:50:38.760Z,0.36
2023-01-20T09:53:15.698Z,0.96
2023-01-20T09:55:53.410Z,1.06
2023-01-20T09:58:30.881Z,1.04
2023-01-20T10:01:04.409Z,0.77
2023-01-20T10:06:20.592Z,0.18
2023-01-20T10:09:08.006Z,0.19
2023-01-20T10:11:41.935Z,0.33
2023-01-20T10:14:17.567Z,0.32
2023-01-20T10:17:12.878Z,0.56
2023-01-20T10:19:42.603Z,0.70
2023-01-20T10:22:27.187Z,0.65
2023-01-20T10:24:59.740Z,1.16
2023-01-20T10:27:30.070Z,1.29
2023-01-20T10:30:13.502Z,1.74
2023-01-20T10:32:40.980Z,1.64
2023-01-20T10:35:15.898Z,1.20
2023-01-20T10:37:43.061Z,1.30
2023-01-20T10:40:19.264Z,1.36
2023-01-20T10:42:55.662Z,0.93
2023-01-20T10:45:41.987Z,1.19
2023-01-20T10:48:33.077Z,1.50
2023-01-20T10:51:14.849Z,1.36
2023-01-20T10:53:59.914Z,1.30
2023-01-20T10:56:35.284Z,1.78
2023-01-20T10:59:12.865Z,1.29
2023-01-20T11:04:06.479Z,1.35
2023-01-20T11:06:33.543Z,1.54
2023-01-20T11:09:16.589Z,1.81
2023-01-20T11:11:46.400Z,1.45
2023-01-20T11:14:13.297Z,0.91
2023-01-20T11:16:41.989Z,1.49
2023-01-20T11:19:08.743Z,1.42
2023-01-20T11:21:37.163Z,1.44
2023-01-20T11:24:36.475Z,1.34
2023-01-20T11:27:11.957Z,1.35
2023-01-20T11:29:42.092Z,1.43
2023-01-20T11:32:25.779Z,1.33
2023-01-20T11:34:54.109Z,1.56
2023-01-20T11:37:26.656Z,1.56
2023-01-20T11:39:53.213Z,1.30
2023-01-20T11:42:27.995Z,1.33
2023-01-20T11:45:20.277Z,1.53
2023-01-20T11:48:02.140Z,1.34
2023-01-20T11:50:38.108Z,1.40
2023-01-20T11:53:18.225Z,1.41
2023-01-20T11:56:18.590Z,1.60
2023-01-20T11:59:02.053Z,1.45
2023-01-20T12:01:42.115Z,1.47
2023-01-20T12:04:18.105Z,1.20
2023-01-20T12:06:56.033Z,1.30
2023-01-20T12:09:30.506Z,1.45
2023-01-20T12:12:06.499Z,1.57
2023-01-20T12:14:41.985Z,1.16
2023-01-20T12:17:33.240Z,1.74
2023-01-20T12:20:03.463Z,2.08
2023-01-20T12:22:41.994Z,2.79
2023-01-20T12:25:24.190Z,2.73
2023-01-20T12:28:12.320Z,2.89
2023-01-20T12:30:43.165Z,2.62
2023-01-20T12:33:20.995Z,2.93
2023-01-20T12:36:21.990Z,2.47
2023-01-20T12:39:19.535Z,2.56
2023-01-20T12:41:58.817Z,2.41
2023-01-20T12:44:35.715Z,2.64
2023-01-20T12:47:33.527Z,2.31
2023-01-20T12:50:12.340Z,3.03
2023-01-20T12:52:44.856Z,2.99
2023-01-20T12:55:11.717Z,3.17
2023-01-20T12:57:43.468Z,3.17
2023-01-20T13:00:34.257Z,3.10
2023-01-20T13:03:24.907Z,1.99
2023-01-20T13:06:08.399Z,2.40
2023-01-20T13:08:42.077Z,2.65
2023-01-20T13:11:17.835Z,3.43
2023-01-20T13:14:09.312Z,2.70
2023-01-20T13:16:42.834Z,3.15
2023-01-20T13:19:14.566Z,2.72
2023-01-20T13:21:41.158Z,2.68
2023-01-20T13:24:18.882Z,3.20
2023-01-20T13:26:48.719Z,3.73
2023-01-20T13:29:42.170Z,4.06
2023-01-20T13:32:42.698Z,5.75
2023-01-20T13:35:18.647Z,6.32
2023-01-20T13:37:51.408Z,5.81
2023-01-20T13:40:45.307Z,4.19
2023-01-20T13:43:26.902Z,4.05
2023-01-20T13:46:06.032Z,4.63
2023-01-20T13:48:35.559Z,4.37
2023-01-20T13:51:26.852Z,3.59
2023-01-20T13:53:53.966Z,3.47
2023-01-20T13:56:35.470Z,3.26
2023-01-20T13:59:02.211Z,3.33
2023-01-20T14:01:29.357Z,3.64
2023-01-20T14:04:04.387Z,6.77
2023-01-20T14:06:33.403Z,8.02
2023-01-20T14:09:01.655Z,8.34
2023-01-20T14:11:30.512Z,7.53
2023-01-20T14:14:02.152Z,8.02
2023-01-20T14:16:36.664Z,7.69
2023-01-20T14:19:28.061Z,9.56
2023-01-20T14:21:57.780Z,8.34
2023-01-20T14:24:27.347Z,6.83
2023-01-20T14:27:07.116Z,4.63
2023-01-20T14:29:33.904Z,4.31
2023-01-20T14:32:00.651Z,5.79
2023-01-20T14:34:32.433Z,4.31
2023-01-20T14:37:03.627Z,4.28
2023-01-20T14:39:31.077Z,3.41
2023-01-20T14:42:00.129Z,2.95
2023-01-20T14:44:29.642Z,3.28
2023-01-20T14:47:02.011Z,2.58
2023-01-20T14:52:09.120Z,2.35
2023-01-20T14:57:18.484Z,1.95
2023-01-20T14:59:45.613Z,1.45
2023-01-20T15:02:31.313Z,1.39
2023-01-20T15:04:58.503Z,1.42
2023-01-20T15:07:25.839Z,1.29
2023-01-20T15:10:08.523Z,1.21
2023-01-20T15:12:42.048Z,0.96
2023-01-20T15:15:12.038Z,0.67
2023-01-20T15:17:41.101Z,0.63
2023-01-20T15:20:32.236Z,0.53
2023-01-20T15:23:02.289Z,0.50
2023-01-20T15:25:29.524Z,0.52
2023-01-20T15:27:57.316Z,0.45
2023-01-20T15:30:27.696Z,0.32
2023-01-20T15:32:55.346Z,0.16
2023-01-20T15:35:26.373Z,0.04
2023-01-20T15:37:53.535Z,0.08
2023-01-20T15:40:22.674Z,0.03
2023-01-20T15:42:51.180Z,0.00
2023-01-20T15:45:18.714Z,-0.23
2023-01-20T15:47:46.771Z,-0.28
2023-01-20T15:50:18.784Z,-0.27
2023-01-20T15:52:48.868Z,-0.27
2023-01-20T15:55:17.349Z,-0.39
2023-01-20T15:57:46.447Z,-0.43
2023-01-20T16:00:18.825Z,-0.49
2023-01-20T16:02:45.843Z,-0.62
2023-01-20T16:05:15.767Z,-0.68
2023-01-20T16:07:44.476Z,-0.62
2023-01-20T16:10:16.711Z,-0.59
2023-01-20T16:12:44.446Z,-0.80
2023-01-20T16:15:16.898Z,-0.80
2023-01-20T16:17:43.854Z,-0.86
2023-01-20T16:20:22.168Z,-0.98
2023-01-20T16:22:48.960Z,-0.88
2023-01-20T16:25:16.115Z,-1.07
2023-01-20T16:27:42.996Z,-1.09
2023-01-20T16:30:26.308Z,-1.06
2023-01-20T16:32:53.191Z,-1.18
2023-01-20T16:35:21.463Z,-1.29
2023-01-20T16:37:48.368Z,-1.17
2023-01-20T16:40:18.350Z,-1.07
2023-01-20T16:42:46.227Z,-1.09
2023-01-20T16:45:32.005Z,-0.99
2023-01-20T16:47:58.868Z,-1.15
2023-01-20T16:50:28.431Z,-1.13
2023-01-20T16:52:55.651Z,-1.15
2023-01-20T16:55:24.105Z,-1.00
2023-01-20T16:57:51.270Z,-1.05
2023-01-20T17:00:19.539Z,-1.19
2023-01-20T17:02:50.988Z,-1.16
2023-01-20T17:05:22.472Z,-1.35
2023-01-20T17:07:50.383Z,-1.37
2023-01-20T17:10:18.452Z,-1.28
2023-01-20T17:12:48.725Z,-1.13
2023-01-20T17:15:15.817Z,-1.14
2023-01-20T17:17:43.711Z,-1.16
2023-01-20T17:20:10.827Z,-1.13
2023-01-20T17:22:39.382Z,-1.04
2023-01-20T17:25:08.616Z,-1.08
2023-01-20T17:27:36.946Z,-1.10
2023-01-20T17:30:07.692Z,-1.07
2023-01-20T17:32:35.357Z,-1.18
2023-01-20T17:35:02.193Z,-1.07
2023-01-20T17:37:28.863Z,-1.17
2023-01-20T17:39:55.576Z,-1.07
2023-01-20T17:42:22.453Z,-1.08
2023-01-20T17:44:49.173Z,-0.97
2023-01-20T17:47:15.819Z,-1.00
2023-01-20T17:49:42.618Z,-1.04
2023-01-20T17:52:09.327Z,-0.99
2023-01-20T17:54:35.959Z,-1.18
2023-01-20T17:57:02.692Z,-1.17
2023-01-20T17:59:29.579Z,-1.09
2023-01-20T18:01:57.086Z,-1.08
2023-01-20T18:04:23.712Z,-1.08
2023-01-20T18:06:50.412Z,-1.19
2023-01-20T18:09:17.171Z,-1.15
2023-01-20T18:11:44.227Z,-1.15
2023-01-20T18:14:11.301Z,-1.14
2023-01-20T18:16:42.191Z,-1.32
2023-01-20T18:19:14.180Z,-1.39
2023-01-20T18:21:42.228Z,-1.53
2023-01-20T18:24:10.355Z,-1.66
2023-01-20T18:26:38.745Z,-1.62
2023-01-20T18:29:14.059Z,-1.58
2023-01-20T18:31:42.453Z,-1.62
2023-01-20T18:34:11.468Z,-1.65
2023-01-20T18:36:42.173Z,-1.65
2023-01-20T18:39:12.608Z,-1.84
2023-01-20T18:41:42.257Z,-1.64
2023-01-20T18:44:09.953Z,-1.77
2023-01-20T18:46:37.113Z,-1.74
2023-01-20T18:49:04.686Z,-1.78
2023-01-20T18:51:34.882Z,-1.84
2023-01-20T18:54:07.532Z,-1.94
2023-01-20T18:56:34.942Z,-1.94
2023-01-20T18:59:03.149Z,-2.07
2023-01-20T19:01:34.059Z,-1.98
2023-01-20T19:04:02.662Z,-2.06
2023-01-20T19:06:31.741Z,-2.06
2023-01-20T19:08:59.577Z,-2.09
2023-01-20T19:11:32.354Z,-2.19
2023-01-20T19:14:02.096Z,-2.20
2023-01-20T19:16:36.194Z,-2.13
2023-01-20T19:19:05.134Z,-2.21
2023-01-20T19:21:33.419Z,-2.30
2023-01-20T19:24:06.063Z,-2.47
2023-01-20T19:26:35.777Z,-2.60
2023-01-20T19:29:05.798Z,-2.48
2023-01-20T19:31:35.105Z,-2.75
2023-01-20T19:34:02.211Z,-2.96
2023-01-20T19:36:29.276Z,-2.82
2023-01-20T19:38:55.961Z,-2.93
2023-01-20T19:41:28.427Z,-3.19
2023-01-20T19:43:57.499Z,-3.38
2023-01-20T19:46:26.836Z,-3.33
2023-01-20T19:48:56.559Z,-3.35
2023-01-20T19:51:24.322Z,-3.64
2023-01-20T19:53:57.550Z,-3.94
2023-01-20T19:56:30.003Z,-4.14
2023-01-20T19:58:57.634Z,-4.23
2023-01-20T20:01:31.636Z,-4.17
2023-01-20T20:03:59.093Z,-4.23
2023-01-20T20:06:34.569Z,-4.18
2023-01-20T20:09:07.576Z,-4.19
2023-01-20T20:11:35.259Z,-4.36
2023-01-20T20:14:04.251Z,-4.37
2023-01-20T20:16:33.516Z,-4.59
2023-01-20T20:19:00.653Z,-4.56
2023-01-20T20:21:28.068Z,-4.61
2023-01-20T20:23:57.545Z,-4.76
2023-01-20T20:26:27.677Z,-4.51
2023-01-20T20:28:54.740Z,-4.48
2023-01-20T20:31:22.704Z,-4.53
2023-01-20T20:33:49.525Z,-4.73
2023-01-20T20:36:17.290Z,-4.75
2023-01-20T20:38:51.228Z,-4.69
2023-01-20T20:41:27.676Z,-4.66
2023-01-20T20:43:56.676Z,-4.67
2023-01-20T20:46:23.590Z,-4.65
2023-01-20T20:48:53.887Z,-4.69
2023-01-20T20:51:21.214Z,-4.57
2023-01-20T20:53:48.248Z,-4.70
2023-01-20T20:56:16.604Z,-4.54
2023-01-20T20:59:00.020Z,-4.37
2023-01-20T21:01:29.644Z,-4.44
2023-01-20T21:03:58.137Z,-4.25
2023-01-20T21:06:25.663Z,-4.16
2023-01-20T21:08:53.352Z,-4.24
2023-01-20T21:11:20.705Z,-4.39
2023-01-20T21:13:50.728Z,-4.25
2023-01-20T21:16:22.408Z,-4.23
2023-01-20T21:18:50.392Z,-4.19
2023-01-20T21:21:17.372Z,-4.21
2023-01-20T21:23:48.608Z,-4.21
2023-01-20T21:26:15.504Z,-4.12
2023-01-20T21:28:43.215Z,-4.08
2023-01-20T21:31:12.557Z,-3.99
2023-01-20T21:33:42.379Z,-3.96
2023-01-20T21:36:12.493Z,-3.86
2023-01-20T21:41:10.008Z,-3.91
2023-01-20T21:43:42.235Z,-3.66
2023-01-20T21:46:08.956Z,-3.72
2023-01-20T21:48:42.272Z,-3.82
2023-01-20T21:51:42.283Z,-3.81
2023-01-20T21:54:09.096Z,-3.81
2023-01-20T21:56:35.740Z,-3.69
2023-01-20T21:59:06.100Z,-3.70
2023-01-20T22:01:32.824Z,-3.48
2023-01-20T22:03:59.831Z,-3.42
2023-01-20T22:06:26.610Z,-3.34
2023-01-20T22:08:53.470Z,-3.34
2023-01-20T22:11:20.191Z,-3.43
2023-01-20T22:13:46.954Z,-3.43
2023-01-20T22:16:13.701Z,-3.26
2023-01-20T22:21:07.768Z,-3.17
2023-01-20T22:23:37.841Z,-3.10
2023-01-20T22:26:05.452Z,-3.28
2023-01-20T22:31:09.977Z,-3.45
2023-01-20T22:33:36.806Z,-3.31
2023-01-20T22:36:04.725Z,-3.33
2023-01-20T22:38:32.067Z,-3.25
2023-01-20T22:41:08.120Z,-3.15
2023-01-20T22:43:37.879Z,-3.31
2023-01-20T22:46:05.452Z,-3.18
2023-01-20T22:48:34.072Z,-2.91
2023-01-20T22:51:04.971Z,-2.71
2023-01-20T22:53:31.833Z,-2.68
2023-01-20T22:56:04.158Z,-2.59
2023-01-20T22:58:31.673Z,-2.67
2023-01-20T23:00:59.327Z,-2.35
2023-01-20T23:03:29.741Z,-2.39
2023-01-20T23:05:59.129Z,-2.43
2023-01-20T23:08:27.450Z,-2.39
2023-01-20T23:11:00.426Z,-2.26
2023-01-20T23:13:29.190Z,-2.30
2023-01-20T23:15:59.359Z,-2.34
2023-01-20T23:18:26.224Z,-2.20
2023-01-20T23:20:54.761Z,-2.18
2023-01-20T23:23:22.187Z,-2.20
2023-01-20T23:25:48.929Z,-2.29
2023-01-20T23:28:16.113Z,-2.34
2023-01-20T23:30:43.563Z,-2.27
2023-01-20T23:33:11.324Z,-2.13
2023-01-20T23:35:39.339Z,-2.30
2023-01-20T23:38:06.969Z,-2.40
2023-01-20T23:40:34.629Z,-2.42
2023-01-20T23:43:01.589Z,-2.38
2023-01-20T23:45:29.055Z,-2.35
2023-01-20T23:47:56.428Z,-2.17
2023-01-20T23:50:23.664Z,-2.31
2023-01-20T23:52:50.580Z,-2.18
2023-01-20T23:55:21.295Z,-2.25
2023-01-20T23:57:48.321Z,-2.34
